Time;durP1;ratioP1;P1;durP2;ratioP2;P2;SDS_P1;SDS_P2;PMS_P1;PMS_P2;Temp;Humidity;BMP_temperature;BMP_pressure;BME280_temperature;BME280_humidity;BME280_pressure;Samples;Min_cycle;Max_cycle;Signal;HPM_P1;HPM_P2
2022/10/15 00:00:18;;;;;;;0.10;0.10;;;8.50;99.90;;;;;;4951693;29;20063;-78
2022/10/15 00:02:49;;;;;;;0.00;0.00;;;8.60;99.90;;;;;;4952776;29;20050;-76
2022/10/15 00:05:15;;;;;;;0.10;0.10;;;;;;;;;;4951052;29;20076;-76
2022/10/15 00:07:41;;;;;;;0.00;0.00;;;;;;;;;;4951245;29;20050;-77
2022/10/15 00:10:12;;;;;;;0.10;0.10;;;8.50;99.90;;;;;;4952739;29;20044;-76
2022/10/15 00:12:39;;;;;;;0.10;0.10;;;8.50;99.90;;;;;;4953919;29;20032;-77
2022/10/15 00:15:11;;;;;;;0.10;0.10;;;8.60;99.90;;;;;;4954340;29;20074;-77
2022/10/15 00:17:38;;;;;;;0.30;0.30;;;8.50;99.90;;;;;;4956133;29;20024;-76
2022/10/15 00:20:07;;;;;;;0.10;0.10;;;8.40;99.90;;;;;;4955326;29;20104;-76
2022/10/15 00:22:49;;;;;;;0.10;0.10;;;8.40;99.90;;;;;;4956673;29;20016;-76
2022/10/15 00:25:15;;;;;;;0.10;0.10;;;8.30;99.90;;;;;;4937387;29;20092;-77
2022/10/15 00:38:29;;;;;;;0.00;0.00;;;8.20;99.90;;;;;;6144837;23;20036;-77
2022/10/15 00:40:55;;;;;;;0.05;0.05;;;8.20;99.90;;;;;;4958628;29;20030;-76
2022/10/15 00:43:39;;;;;;;0.10;0.10;;;8.20;99.90;;;;;;4960520;29;20019;-79
2022/10/15 00:46:11;;;;;;;7.57;6.38;;;8.20;99.90;;;;;;4977090;29;20027;-76
2022/10/15 00:48:37;;;;;;;0.00;0.00;;;8.20;99.90;;;;;;4975540;28;20063;-77
2022/10/15 00:51:04;;;;;;;0.10;0.10;;;8.10;99.90;;;;;;4958021;29;20055;-77
2022/10/15 00:53:30;;;;;;;0.10;0.10;;;8.10;99.90;;;;;;4959888;29;20019;-77
2022/10/15 00:55:56;;;;;;;0.10;0.10;;;8.10;99.90;;;;;;4975344;29;20031;-76
2022/10/15 00:58:27;;;;;;;0.10;0.10;;;8.10;99.90;;;;;;4973879;29;20041;-76
2022/10/15 01:00:54;;;;;;;0.10;0.10;;;8.10;99.90;;;;;;4958576;29;20023;-77
2022/10/15 01:03:20;;;;;;;1.27;1.17;;;8.10;99.90;;;;;;4957572;29;20027;-76
2022/10/15 01:05:50;;;;;;;0.10;0.10;;;8.00;99.90;;;;;;4975200;29;20031;-76
2022/10/15 01:08:15;;;;;;;0.00;0.00;;;8.00;99.90;;;;;;4956847;29;20047;-77
2022/10/15 01:11:03;;;;;;;0.10;0.10;;;8.10;99.90;;;;;;4957918;29;20039;-76
2022/10/15 01:13:34;;;;;;;0.20;0.20;;;8.10;99.90;;;;;;4957566;29;20118;-76
2022/10/15 01:16:24;;;;;;;0.10;0.10;;;8.10;99.90;;;;;;4974200;29;20020;-75
2022/10/15 01:19:03;;;;;;;0.00;0.00;;;8.10;99.90;;;;;;4974132;29;20288;-77
2022/10/15 01:21:37;;;;;;;0.10;0.10;;;8.00;99.90;;;;;;4973269;29;19995;-77
2022/10/15 01:24:21;;;;;;;0.00;0.00;;;7.90;99.90;;;;;;4956686;28;20039;-77
2022/10/15 01:26:59;;;;;;;0.10;0.10;;;7.90;99.90;;;;;;4973432;29;20098;-77
2022/10/15 01:29:47;;;;;;;0.00;0.00;;;7.90;99.90;;;;;;4956871;29;20055;-77
2022/10/15 01:32:16;;;;;;;0.10;0.10;;;7.80;99.90;;;;;;4972611;29;20035;-76
2022/10/15 01:35:01;;;;;;;0.10;0.10;;;7.80;99.90;;;;;;4973241;29;20091;-76
2022/10/15 01:37:37;;;;;;;0.03;0.03;;;7.80;99.90;;;;;;4956658;29;20188;-77
2022/10/15 01:40:19;;;;;;;0.10;0.10;;;7.80;99.90;;;;;;4967672;28;20044;-77
2022/10/15 01:42:51;;;;;;;0.10;0.10;;;7.80;99.90;;;;;;4947498;29;20027;-76
2022/10/15 01:45:26;;;;;;;0.10;0.10;;;7.80;99.90;;;;;;4948118;29;20047;-76
2022/10/15 01:47:59;;;;;;;0.20;0.20;;;7.80;99.90;;;;;;4966656;29;20046;-78
2022/10/15 01:50:30;;;;;;;2.13;1.97;;;7.80;99.90;;;;;;4949331;29;20020;-78
2022/10/15 01:52:59;;;;;;;0.00;0.00;;;7.80;99.90;;;;;;4965274;29;20024;-76
2022/10/15 01:55:26;;;;;;;20.05;19.27;;;7.90;99.90;;;;;;4971499;29;20018;-80
2022/10/15 01:57:55;;;;;;;0.10;0.10;;;7.80;99.90;;;;;;4973105;29;20023;-77
2022/10/15 02:00:21;;;;;;;0.10;0.10;;;7.80;99.90;;;;;;4974194;29;20023;-75
2022/10/15 02:02:47;;;;;;;0.00;0.00;;;7.80;99.90;;;;;;4956896;29;20109;-78
2022/10/15 02:05:23;;;;;;;0.10;0.10;;;7.80;99.90;;;;;;4957574;29;20511;-76
2022/10/15 02:08:12;;;;;;;0.00;0.00;;;7.80;99.90;;;;;;4973548;29;20015;-77
2022/10/15 02:11:01;;;;;;;0.10;0.10;;;7.80;99.90;;;;;;4944560;29;20743;-77
2022/10/15 02:13:48;;;;;;;0.10;0.10;;;7.70;99.90;;;;;;4957738;29;20265;-76
2022/10/15 02:16:40;;;;;;;0.05;0.05;;;7.60;99.90;;;;;;4958144;29;20028;-77
2022/10/15 02:19:31;;;;;;;0.00;0.00;;;7.50;99.90;;;;;;4955984;29;20031;-77
2022/10/15 02:22:13;;;;;;;0.10;0.10;;;7.40;99.90;;;;;;4956123;29;20027;-77
2022/10/15 02:24:57;;;;;;;0.10;0.10;;;7.40;99.90;;;;;;4954361;29;20027;-76
2022/10/15 02:27:27;;;;;;;0.10;0.10;;;7.40;99.90;;;;;;4954098;29;20028;-76
2022/10/15 02:29:54;;;;;;;0.10;0.10;;;7.40;99.90;;;;;;4953220;29;20680;-76
2022/10/15 02:32:21;;;;;;;0.85;0.85;;;7.40;99.90;;;;;;4952121;29;20031;-77
2022/10/15 02:34:48;;;;;;;0.10;0.10;;;7.40;99.90;;;;;;4935262;29;20071;-76
2022/10/15 02:37:16;;;;;;;0.10;0.10;;;7.40;99.90;;;;;;4935082;29;20038;-76
2022/10/15 02:39:48;;;;;;;0.10;0.10;;;7.30;99.90;;;;;;4951052;28;20130;-76
2022/10/15 02:42:16;;;;;;;0.10;0.10;;;7.30;99.90;;;;;;4950640;29;20031;-76
2022/10/15 02:44:42;;;;;;;0.10;0.10;;;7.30;99.90;;;;;;4950026;29;20020;-76
2022/10/15 02:47:09;;;;;;;0.10;0.10;;;7.40;99.90;;;;;;4949327;29;20035;-77
2022/10/15 02:49:34;;;;;;;0.10;0.10;;;7.30;99.90;;;;;;4950169;29;20079;-77
2022/10/15 02:52:00;;;;;;;0.00;0.00;;;7.30;99.90;;;;;;4949522;29;20031;-76
2022/10/15 02:54:26;;;;;;;0.10;0.10;;;7.40;99.90;;;;;;4951937;29;20110;-76
2022/10/15 02:56:51;;;;;;;0.10;0.10;;;7.40;99.90;;;;;;4966194;29;20037;-76
2022/10/15 02:59:18;;;;;;;0.10;0.10;;;7.30;99.90;;;;;;4964508;29;20028;-77
2022/10/15 03:01:47;;;;;;;87.68;80.75;;;7.40;99.90;;;;;;4947981;29;20041;-77
2022/10/15 03:04:21;;;;;;;0.10;0.10;;;7.40;99.90;;;;;;4964841;29;20027;-76
2022/10/15 03:06:47;;;;;;;0.10;0.10;;;7.30;99.90;;;;;;4964398;29;20023;-77
2022/10/15 03:09:12;;;;;;;0.10;0.10;;;7.40;99.90;;;;;;4947965;29;20426;-76
2022/10/15 03:11:45;;;;;;;0.10;0.10;;;7.30;99.90;;;;;;4964752;29;20471;-76
2022/10/15 03:14:11;;;;;;;0.00;0.00;;;7.30;99.90;;;;;;4963137;29;20039;-77
2022/10/15 03:16:40;;;;;;;0.05;0.05;;;7.30;99.90;;;;;;4966568;29;20263;-76
2022/10/15 03:19:06;;;;;;;0.10;0.10;;;7.20;99.90;;;;;;4965756;29;20031;-78
2022/10/15 03:21:34;;;;;;;1.67;1.67;;;7.10;99.90;;;;;;4966308;29;20007;-76
2022/10/15 03:24:02;;;;;;;0.10;0.10;;;7.10;99.90;;;;;;4946926;29;20055;-78
2022/10/15 03:26:29;;;;;;;0.00;0.00;;;7.20;99.90;;;;;;4937250;29;20037;-76
2022/10/15 03:28:54;;;;;;;0.00;0.00;;;7.10;99.90;;;;;;4935385;29;20406;-77
2022/10/15 03:31:20;;;;;;;0.10;0.10;;;7.10;99.90;;;;;;4954331;29;20083;-79
2022/10/15 03:33:46;;;;;;;0.00;0.00;;;7.00;99.90;;;;;;4935257;29;20322;-76
2022/10/15 03:36:13;;;;;;;4.35;4.05;;;7.10;99.90;;;;;;4954004;29;20277;-77
2022/10/15 03:38:40;;;;;;;0.00;0.00;;;7.10;99.90;;;;;;4934525;28;20036;-77
2022/10/15 03:41:09;;;;;;;0.00;0.00;;;7.10;99.90;;;;;;4968884;29;20036;-76
2022/10/15 03:43:34;;;;;;;0.10;0.10;;;7.10;99.90;;;;;;4972330;29;20027;-77
2022/10/15 03:46:02;;;;;;;0.10;0.10;;;7.20;99.90;;;;;;4971864;29;20034;-77
2022/10/15 03:48:28;;;;;;;0.10;0.10;;;7.10;99.90;;;;;;4956442;29;20059;-78
2022/10/15 03:50:56;;;;;;;0.10;0.10;;;7.00;99.90;;;;;;4976771;28;20035;-77
2022/10/15 03:53:42;;;;;;;0.00;0.00;;;7.00;99.90;;;;;;4976996;28;20055;-77
2022/10/15 03:56:08;;;;;;;0.00;0.00;;;7.00;99.90;;;;;;4978877;29;20035;-77
2022/10/15 03:58:33;;;;;;;0.00;0.00;;;6.90;99.90;;;;;;4979120;29;20027;-77
2022/10/15 04:01:02;;;;;;;0.00;0.00;;;8.70;99.90;;;;;;4976914;29;20022;-78
2022/10/15 04:03:29;;;;;;;0.10;0.10;;;6.80;99.90;;;;;;4961071;29;20030;-77
2022/10/15 04:05:54;;;;;;;0.00;0.00;;;6.70;99.90;;;;;;4977782;29;20023;-76
2022/10/15 04:08:52;;;;;;;0.00;0.00;;;6.70;99.90;;;;;;4978106;29;20071;-77
2022/10/15 04:11:18;;;;;;;0.10;0.10;;;6.70;99.90;;;;;;4975987;28;20022;-77
2022/10/15 04:13:53;;;;;;;0.00;0.00;;;6.70;99.90;;;;;;4957710;29;20039;-77
2022/10/15 04:16:23;;;;;;;0.08;0.08;;;6.60;99.90;;;;;;4970553;29;20078;-76
2022/10/15 04:18:49;;;;;;;0.10;0.10;;;6.60;99.90;;;;;;4954551;29;20413;-77
2022/10/15 04:21:21;;;;;;;0.00;0.00;;;6.70;99.90;;;;;;4952628;29;20035;-77
2022/10/15 04:23:48;;;;;;;0.08;0.08;;;6.60;99.90;;;;;;4968546;29;20063;-77
2022/10/15 04:26:13;;;;;;;0.10;0.10;;;6.50;99.90;;;;;;4951383;29;20019;-77
2022/10/15 04:28:39;;;;;;;0.32;0.32;;;6.50;99.90;;;;;;4949445;29;20449;-77
2022/10/15 04:31:08;;;;;;;0.00;0.00;;;6.60;99.90;;;;;;4969869;29;20031;-76
2022/10/15 04:33:34;;;;;;;0.00;0.00;;;6.60;99.90;;;;;;4937953;29;20032;-77
2022/10/15 04:36:11;;;;;;;0.00;0.00;;;6.50;99.90;;;;;;4973621;29;20300;-76
2022/10/15 04:38:41;;;;;;;0.00;0.00;;;6.60;99.90;;;;;;4953992;28;20023;-76
2022/10/15 04:41:10;;;;;;;0.10;0.10;;;6.60;99.90;;;;;;4955329;29;20050;-77
2022/10/15 04:43:41;;;;;;;0.00;0.00;;;8.00;99.90;;;;;;4955976;29;20047;-76
2022/10/15 04:46:10;;;;;;;0.00;0.00;;;6.60;99.90;;;;;;4956653;29;20043;-81
2022/10/15 04:48:37;;;;;;;0.10;0.10;;;6.70;99.90;;;;;;4955712;29;20099;-77
2022/10/15 04:51:30;;;;;;;0.10;0.10;;;7.60;99.90;;;;;;4973096;29;20023;-76
2022/10/15 04:54:01;;;;;;;0.00;0.00;;;6.60;99.90;;;;;;4973527;29;20031;-77
2022/10/15 04:56:30;;;;;;;0.00;0.00;;;5.40;99.90;;;;;;4974547;29;20032;-76
2022/10/15 04:59:09;;;;;;;0.00;0.00;;;6.50;99.90;;;;;;4977270;28;20462;-77
2022/10/15 05:01:34;;;;;;;0.00;0.00;;;6.60;99.90;;;;;;4978229;28;20047;-76
2022/10/15 05:04:00;;;;;;;0.10;0.10;;;6.50;99.90;;;;;;4977068;29;20018;-78
2022/10/15 05:06:29;;;;;;;0.10;0.10;;;6.50;99.90;;;;;;4991340;23;20050;-77
2022/10/15 05:08:54;;;;;;;0.00;0.00;;;6.50;99.90;;;;;;5017337;28;20340;-77
2022/10/15 05:11:23;;;;;;;0.00;0.00;;;6.50;99.90;;;;;;4999629;28;20050;-77
2022/10/15 05:13:49;;;;;;;0.00;0.00;;;6.40;99.90;;;;;;5017382;28;20015;-75
2022/10/15 05:16:20;;;;;;;0.10;0.10;;;6.40;99.90;;;;;;5001833;28;20018;-77
2022/10/15 05:18:48;;;;;;;0.00;0.00;;;6.30;99.90;;;;;;5001735;28;20041;-79
2022/10/15 05:21:15;;;;;;;0.00;0.00;;;6.40;99.90;;;;;;5018470;28;20007;-77
2022/10/15 05:23:42;;;;;;;0.10;0.10;;;6.40;99.90;;;;;;5000716;28;20038;-76
2022/10/15 05:26:11;;;;;;;0.10;0.10;;;6.40;99.90;;;;;;5001533;28;20058;-76
2022/10/15 05:28:37;;;;;;;0.03;0.03;;;6.40;99.90;;;;;;5017770;28;20040;-77
2022/10/15 05:31:07;;;;;;;0.08;0.08;;;6.40;99.90;;;;;;5018528;28;20002;-76
2022/10/15 05:33:34;;;;;;;0.00;0.00;;;6.50;99.90;;;;;;5017631;28;20082;-76
2022/10/15 05:36:24;;;;;;;0.08;0.08;;;6.60;99.90;;;;;;4999792;28;20073;-77
2022/10/15 05:39:01;;;;;;;0.10;0.10;;;6.60;99.90;;;;;;5017192;28;20041;-77
2022/10/15 05:41:46;;;;;;;0.10;0.10;;;6.80;99.90;;;;;;5017962;28;20085;-79
2022/10/15 05:44:26;;;;;;;0.80;0.80;;;6.80;99.90;;;;;;5015294;28;20031;-76
2022/10/15 05:47:12;;;;;;;0.77;0.77;;;6.80;99.90;;;;;;5016027;28;20034;-79
2022/10/15 05:49:38;;;;;;;0.57;0.57;;;6.90;99.90;;;;;;5016309;28;20042;-77
2022/10/15 05:52:04;;;;;;;0.10;0.10;;;7.00;99.90;;;;;;4999858;28;20030;-75
2022/10/15 05:54:29;;;;;;;0.10;0.10;;;7.00;99.90;;;;;;4998215;28;20007;-76
2022/10/15 05:56:56;;;;;;;0.10;0.10;;;7.10;99.90;;;;;;5016577;28;20018;-76
2022/10/15 05:59:27;;;;;;;0.10;0.10;;;7.20;99.90;;;;;;5015159;28;20010;-76
2022/10/15 06:01:53;;;;;;;0.10;0.10;;;7.20;99.90;;;;;;4999614;28;20018;-77
2022/10/15 06:04:21;;;;;;;0.10;0.10;;;7.30;99.90;;;;;;5017186;28;20018;-77
2022/10/15 06:06:47;;;;;;;0.10;0.10;;;7.40;99.90;;;;;;5016550;28;20057;-77
2022/10/15 06:09:17;;;;;;;0.10;0.10;;;7.40;99.90;;;;;;4998554;28;20030;-77
2022/10/15 06:11:44;;;;;;;0.10;0.10;;;7.40;99.90;;;;;;5015173;28;20030;-77
2022/10/15 06:14:10;;;;;;;0.10;0.10;;;7.50;99.90;;;;;;5016100;28;19998;-76
2022/10/15 06:16:36;;;;;;;0.00;0.00;;;7.50;99.90;;;;;;4998834;28;20535;-77
2022/10/15 06:19:02;;;;;;;0.13;0.13;;;7.50;99.90;;;;;;5015105;28;20071;-75
2022/10/15 06:21:28;;;;;;;0.00;0.00;;;7.50;99.90;;;;;;4998019;28;20030;-76
2022/10/15 06:23:54;;;;;;;0.00;0.00;;;7.50;99.90;;;;;;5016102;28;20011;-81
2022/10/15 06:26:20;;;;;;;0.10;0.10;;;7.60;99.90;;;;;;5014570;28;20013;-77
2022/10/15 06:28:46;;;;;;;0.10;0.10;;;7.60;99.90;;;;;;5014771;28;20065;-81
2022/10/15 06:31:11;;;;;;;0.10;0.10;;;7.70;99.90;;;;;;5016188;28;20038;-79
2022/10/15 06:33:38;;;;;;;2.50;2.40;;;7.80;99.90;;;;;;5016353;28;20022;-78
2022/10/15 06:36:34;;;;;;;0.20;0.20;;;7.80;99.90;;;;;;5013810;28;20019;-82
2022/10/15 06:39:01;;;;;;;0.10;0.10;;;7.90;99.90;;;;;;5015706;28;20030;-77
2022/10/15 06:41:29;;;;;;;0.20;0.20;;;8.10;99.90;;;;;;5015707;28;20037;-79
2022/10/15 06:43:54;;;;;;;0.10;0.10;;;8.10;99.90;;;;;;5016595;28;20046;-78
2022/10/15 06:46:20;;;;;;;0.10;0.10;;;8.20;99.90;;;;;;5016312;28;20015;-77
2022/10/15 06:48:46;;;;;;;0.20;0.20;;;8.20;99.90;;;;;;5015398;28;20030;-79
2022/10/15 06:51:12;;;;;;;0.10;0.10;;;8.30;99.90;;;;;;5016713;28;20017;-79
2022/10/15 06:53:41;;;;;;;2.92;2.83;;;8.40;99.90;;;;;;5015631;28;20022;-78
2022/10/15 06:56:06;;;;;;;0.20;0.20;;;8.40;99.90;;;;;;4998213;28;20106;-79
2022/10/15 06:58:52;;;;;;;0.10;0.10;;;8.60;99.90;;;;;;5009585;28;20044;-77
2022/10/15 07:01:18;;;;;;;0.28;0.28;;;8.60;99.90;;;;;;5011868;28;20046;-80
2022/10/15 07:03:44;;;;;;;0.10;0.10;;;8.70;99.90;;;;;;5013423;28;20030;-80
2022/10/15 07:06:22;;;;;;;0.10;0.10;;;8.80;99.90;;;;;;5012973;28;20023;-81
2022/10/15 07:08:51;;;;;;;3.55;3.40;;;8.90;99.90;;;;;;5011404;28;20034;-77
2022/10/15 07:11:17;;;;;;;0.10;0.10;;;9.00;99.90;;;;;;5010519;28;20030;-78
2022/10/15 07:13:43;;;;;;;9.88;9.52;;;9.00;99.90;;;;;;4979931;28;20018;-78
2022/10/15 07:16:11;;;;;;;0.10;0.10;;;9.10;99.90;;;;;;4995150;28;20037;-77
2022/10/15 07:18:39;;;;;;;0.15;0.15;;;9.20;99.90;;;;;;4976921;28;20041;-78
2022/10/15 07:21:07;;;;;;;3.80;3.63;;;9.30;99.90;;;;;;4980758;28;20023;-78
2022/10/15 07:23:32;;;;;;;0.10;0.10;;;9.30;99.90;;;;;;4984125;28;20355;-77
2022/10/15 07:25:59;;;;;;;0.40;0.40;;;9.50;99.90;;;;;;4985150;28;20394;-80
2022/10/15 07:28:25;;;;;;;0.10;0.10;;;9.70;99.90;;;;;;5016487;28;20478;-78
2022/10/15 07:30:52;;;;;;;0.20;0.20;;;9.80;99.90;;;;;;5017534;28;20026;-77
2022/10/15 07:33:42;;;;;;;0.10;0.10;;;9.90;99.90;;;;;;5015071;28;20023;-79
2022/10/15 07:36:11;;;;;;;0.20;0.20;;;9.30;99.90;;;;;;4998141;28;20044;-77
2022/10/15 07:38:39;;;;;;;0.13;0.13;;;10.00;99.90;;;;;;5017194;28;20062;-77
2022/10/15 07:41:07;;;;;;;1.45;1.45;;;10.10;99.90;;;;;;5012649;28;20007;-78
2022/10/15 07:43:33;;;;;;;0.13;0.13;;;10.20;99.90;;;;;;5014802;28;20066;-80
2022/10/15 07:46:00;;;;;;;0.52;0.52;;;10.20;99.90;;;;;;4997763;28;20058;-78
2022/10/15 07:48:48;;;;;;;0.40;0.40;;;10.10;99.90;;;;;;4997461;28;20069;-77
2022/10/15 07:51:17;;;;;;;0.20;0.20;;;10.20;99.90;;;;;;5015454;28;20021;-79
2022/10/15 07:53:43;;;;;;;0.10;0.10;;;10.10;99.90;;;;;;5016817;28;20071;-77
2022/10/15 07:56:18;;;;;;;0.25;0.25;;;10.10;99.90;;;;;;5015045;28;20030;-77
2022/10/15 07:58:50;;;;;;;0.20;0.20;;;10.30;99.90;;;;;;5016540;28;20042;-80
2022/10/15 08:01:17;;;;;;;4.40;4.20;;;10.40;99.90;;;;;;4997783;28;20026;-77
2022/10/15 08:03:42;;;;;;;0.10;0.10;;;10.50;99.90;;;;;;4997739;28;20123;-77
2022/10/15 08:06:34;;;;;;;1.50;1.38;;;10.30;99.90;;;;;;5017104;28;20007;-80
2022/10/15 08:09:04;;;;;;;3.25;3.15;;;10.50;99.90;;;;;;4975458;29;20046;-80
2022/10/15 08:11:59;;;;;;;9.63;8.88;;;10.50;99.90;;;;;;4958674;29;20423;-80
2022/10/15 08:14:25;;;;;;;0.10;0.10;;;10.80;99.90;;;;;;4938283;29;20165;-81
2022/10/15 08:17:11;;;;;;;2.90;2.80;;;11.10;99.90;;;;;;4922143;29;20076;-77
2022/10/15 08:19:36;;;;;;;1.05;1.05;;;10.20;99.90;;;;;;4922211;29;20279;-87
2022/10/15 08:22:02;;;;;;;0.25;0.25;;;11.30;99.90;;;;;;4937053;29;20040;-79
2022/10/15 08:24:29;;;;;;;1.95;1.85;;;11.30;99.90;;;;;;4939884;29;20072;-79
2022/10/15 08:27:00;;;;;;;0.20;0.20;;;14.30;99.90;;;;;;4931762;29;20035;-83
2022/10/15 08:29:27;;;;;;;10.57;9.50;;;11.40;99.90;;;;;;4932952;29;20044;-79
2022/10/15 08:31:53;;;;;;;0.40;0.40;;;11.60;99.90;;;;;;5019192;23;20711;-78
2022/10/15 08:34:19;;;;;;;0.20;0.20;;;11.80;99.90;;;;;;5013023;28;20015;-78
2022/10/15 08:36:45;;;;;;;0.80;0.80;;;11.90;99.90;;;;;;5003171;28;20030;-80
2022/10/15 08:39:11;;;;;;;0.43;0.43;;;;;;;;;;4994238;28;20090;-91
2022/10/15 08:42:13;;;;;;;1.83;1.77;;;12.10;99.90;;;;;;4971805;28;20022;-86
2022/10/15 08:44:50;;;;;;;2.05;1.95;;;12.20;99.90;;;;;;4924385;29;20202;-79
2022/10/15 08:47:36;;;;;;;1.80;1.75;;;12.20;99.90;;;;;;4924703;29;20048;-81
2022/10/15 08:50:51;;;;;;;0.40;0.40;;;12.10;99.90;;;;;;4924996;29;20046;-80
2022/10/15 08:53:20;;;;;;;0.35;0.35;;;12.40;99.90;;;;;;4888338;29;20112;-88
2022/10/15 08:55:50;;;;;;;0.20;0.20;;;12.20;99.90;;;;;;4886988;29;20516;-85
2022/10/15 08:58:34;;;;;;;0.57;0.57;;;12.30;99.90;;;;;;4888738;29;20044;-82
2022/10/15 09:01:12;;;;;;;0.73;0.73;;;12.50;99.90;;;;;;4890296;29;20136;-86
2022/10/15 09:04:05;;;;;;;0.20;0.20;;;12.80;99.90;;;;;;4888873;29;20678;-85
2022/10/15 09:06:44;;;;;;;5.90;2.47;;;12.90;99.90;;;;;;4886279;29;20300;-83
2022/10/15 09:09:33;;;;;;;0.90;0.90;;;12.90;99.90;;;;;;4885316;29;20922;-89
2022/10/15 09:12:42;;;;;;;21.83;12.55;;;12.80;99.90;;;;;;4868572;29;20374;-79
2022/10/15 09:15:17;;;;;;;0.20;0.20;;;12.90;99.90;;;;;;4868251;29;20513;-85
2022/10/15 09:17:47;;;;;;;0.20;0.20;;;13.10;99.90;;;;;;4866021;29;20042;-82
2022/10/15 09:20:19;;;;;;;8.35;7.68;;;13.00;99.90;;;;;;4850847;29;20044;-87
2022/10/15 09:22:49;;;;;;;0.20;0.20;;;13.00;99.90;;;;;;4865927;29;20126;-92
2022/10/15 09:25:18;;;;;;;0.40;0.40;;;13.20;99.90;;;;;;4865109;29;20040;-82
2022/10/15 09:27:54;;;;;;;0.20;0.20;;;13.70;99.90;;;;;;4850249;29;20121;-90
2022/10/15 09:30:32;;;;;;;2.67;2.50;;;13.30;99.90;;;;;;4914195;29;20055;-80
2022/10/15 09:33:00;;;;;;;0.43;0.43;;;13.40;99.90;;;;;;4921395;29;20550;-78
2022/10/15 09:35:26;;;;;;;1.13;1.13;;;13.60;99.90;;;;;;4905248;29;20402;-86
2022/10/15 09:38:26;;;;;;;2.92;2.83;;;13.80;99.90;;;;;;4921448;29;20118;-86
2022/10/15 09:41:15;;;;;;;0.28;0.28;;;13.90;99.90;;;;;;4921610;29;20336;-83
2022/10/15 09:43:44;;;;;;;1.10;1.10;;;13.90;99.90;;;;;;4920936;29;20275;-79
2022/10/15 09:46:11;;;;;;;0.95;0.93;;;14.10;99.90;;;;;;4920925;29;20070;-87
2022/10/15 09:49:08;;;;;;;0.90;0.90;;;14.30;99.90;;;;;;4916929;28;20078;-91
2022/10/15 09:51:41;;;;;;;0.38;0.38;;;14.50;99.90;;;;;;4919072;28;20336;-88
2022/10/15 09:54:17;;;;;;;3.30;3.13;;;14.50;99.90;;;;;;4963833;28;20029;-86
2022/10/15 09:56:51;;;;;;;0.55;0.55;;;14.70;99.90;;;;;;4963360;28;20027;-91
2022/10/15 09:59:19;;;;;;;0.20;0.20;;;14.70;99.90;;;;;;4963324;28;20178;-82
2022/10/15 10:02:14;;;;;;;0.47;0.47;;;14.90;99.90;;;;;;4963227;28;20395;-86
2022/10/15 10:04:39;;;;;;;2.55;2.40;;;15.10;99.90;;;;;;4952840;28;20110;-84
2022/10/15 10:07:07;;;;;;;3.45;3.15;;;15.30;99.90;;;;;;4962227;28;20306;-87
2022/10/15 10:09:53;;;;;;;0.50;0.50;;;15.50;99.90;;;;;;4961822;28;20106;-92
2022/10/15 10:12:26;;;;;;;4.20;3.95;;;15.70;99.90;;;;;;4961966;28;20033;-83
2022/10/15 10:14:55;;;;;;;0.55;0.55;;;15.80;99.90;;;;;;4961633;28;20082;-91
2022/10/15 10:17:23;;;;;;;0.50;0.50;;;15.90;99.90;;;;;;4961962;28;20074;-90
2022/10/15 10:20:01;;;;;;;1.42;1.33;;;17.30;99.90;;;;;;4962417;28;20106;-88
2022/10/15 10:22:46;;;;;;;2.15;2.05;;;16.30;99.90;;;;;;4963010;28;20031;-91
2022/10/15 10:25:29;;;;;;;0.68;0.68;;;16.20;99.90;;;;;;4962297;28;20045;-87
2022/10/15 10:27:58;;;;;;;1.60;1.55;;;16.30;99.90;;;;;;4963977;28;20165;-87
2022/10/15 10:30:24;;;;;;;0.17;0.17;;;16.30;99.90;;;;;;4962791;28;20026;-88
2022/10/15 10:32:58;;;;;;;1.58;1.48;;;16.50;99.90;;;;;;4962314;28;20022;-91
2022/10/15 10:35:32;;;;;;;0.10;0.10;;;16.70;99.90;;;;;;4963443;28;20023;-84
2022/10/15 10:37:58;;;;;;;2.50;2.40;;;16.80;99.90;;;;;;4963687;28;20025;-91
2022/10/15 10:40:33;;;;;;;3.08;2.83;;;16.80;99.90;;;;;;4971587;28;20279;-86
2022/10/15 10:43:18;;;;;;;0.77;0.77;;;17.10;99.90;;;;;;4975930;28;20026;-86
2022/10/15 10:46:23;;;;;;;0.60;0.60;;;17.20;99.90;;;;;;4970800;28;20030;-78
2022/10/15 10:48:51;;;;;;;0.40;0.40;;;17.30;99.90;;;;;;4970232;28;20078;-79
2022/10/15 10:51:20;;;;;;;0.30;0.30;;;17.50;99.90;;;;;;4967594;28;20337;-81
2022/10/15 10:53:48;;;;;;;0.32;0.32;;;17.40;99.90;;;;;;4967401;28;20034;-83
2022/10/15 10:56:15;;;;;;;1.73;1.63;;;16.60;99.90;;;;;;4963175;28;20019;-78
2022/10/15 10:58:42;;;;;;;0.47;0.47;;;17.60;99.90;;;;;;4963001;28;20188;-89
2022/10/15 11:01:11;;;;;;;0.10;0.10;;;17.90;99.90;;;;;;4963258;28;20023;-81
2022/10/15 11:03:44;;;;;;;0.22;0.22;;;18.00;99.90;;;;;;4963354;28;20117;-90
2022/10/15 11:06:36;;;;;;;0.38;0.38;;;18.30;99.90;;;;;;4961504;28;20023;-89
2022/10/15 11:09:30;;;;;;;0.68;0.68;;;18.40;99.90;;;;;;4961895;28;20058;-92
2022/10/15 11:11:59;;;;;;;2.88;2.63;;;18.40;99.90;;;;;;4944198;28;20256;-88
2022/10/15 11:14:27;;;;;;;1.95;1.85;;;18.60;99.90;;;;;;4960803;28;20035;-83
2022/10/15 11:17:09;;;;;;;0.32;0.32;;;18.90;99.50;;;;;;4943029;28;20490;-86
2022/10/15 11:19:38;;;;;;;0.82;0.82;;;19.20;98.60;;;;;;4960977;28;20102;-80
2022/10/15 11:22:25;;;;;;;0.20;0.20;;;19.50;98.20;;;;;;4944967;28;20038;-83
2022/10/15 11:24:50;;;;;;;2.83;2.67;;;19.60;97.10;;;;;;4960880;28;20027;-89
2022/10/15 11:27:59;;;;;;;2.15;2.05;;;19.80;97.40;;;;;;4944072;28;20033;-85
2022/10/15 11:30:49;;;;;;;1.17;0.65;;;19.80;96.10;;;;;;4959581;28;20085;-82
2022/10/15 11:33:36;;;;;;;4.13;3.33;;;20.10;95.70;;;;;;4960842;28;20279;-86
2022/10/15 11:36:20;;;;;;;13.85;12.60;;;20.20;94.80;;;;;;4960324;28;20031;-84
2022/10/15 11:39:30;;;;;;;0.68;0.68;;;20.20;94.70;;;;;;4960459;28;20154;-83
2022/10/15 11:42:07;;;;;;;1.70;1.63;;;20.40;94.80;;;;;;4883260;29;20032;-82
2022/10/15 11:45:04;;;;;;;0.17;0.17;;;20.60;94.80;;;;;;4900041;29;20032;-83
2022/10/15 11:47:53;;;;;;;0.10;0.10;;;20.90;93.70;;;;;;4899483;29;20071;-80
2022/10/15 11:50:25;;;;;;;7.95;2.17;;;20.70;92.90;;;;;;4885151;29;20060;-84
2022/10/15 11:53:15;;;;;;;0.40;0.40;;;20.90;92.80;;;;;;4900636;29;20036;-83
2022/10/15 11:55:56;;;;;;;0.85;0.77;;;21.10;91.90;;;;;;4900171;29;20032;-84
2022/10/15 11:58:57;;;;;;;2.25;2.10;;;21.10;91.70;;;;;;4900022;29;20028;-81
2022/10/15 12:01:32;;;;;;;0.40;0.40;;;21.00;91.60;;;;;;4862151;29;20292;-83
2022/10/15 12:04:33;;;;;;;0.95;0.95;;;21.30;91.20;;;;;;4846146;29;20040;-84
2022/10/15 12:07:03;;;;;;;1.55;1.45;;;21.40;90.70;;;;;;4824932;29;20046;-86
2022/10/15 12:09:35;;;;;;;1.50;1.40;;;21.30;90.90;;;;;;4811071;29;20305;-79
2022/10/15 12:12:18;;;;;;;1.80;1.65;;;21.30;90.40;;;;;;4813418;29;20553;-78
2022/10/15 12:14:47;;;;;;;0.17;0.17;;;19.80;90.50;;;;;;4829527;29;20121;-77
2022/10/15 12:17:28;;;;;;;3.47;1.30;;;21.60;90.80;;;;;;4829156;29;20364;-82
2022/10/15 12:19:59;;;;;;;0.30;0.30;;;21.90;90.40;;;;;;4860459;29;20069;-84
2022/10/15 12:22:55;;;;;;;0.22;0.22;;;22.00;89.40;;;;;;4849657;29;20037;-87
2022/10/15 12:25:33;;;;;;;0.57;0.50;;;22.20;89.50;;;;;;4850278;29;20477;-87
2022/10/15 12:28:09;;;;;;;1.23;1.17;;;22.50;88.90;;;;;;4864983;29;20516;-84
2022/10/15 12:30:36;;;;;;;0.30;0.30;;;22.80;89.00;;;;;;4864872;29;20052;-84
2022/10/15 12:33:19;;;;;;;1.50;1.40;;;23.20;85.60;;;;;;4849072;29;20059;-82
2022/10/15 12:36:07;;;;;;;0.95;0.95;;;23.60;83.80;;;;;;4849357;29;20564;-83
2022/10/15 12:38:40;;;;;;;1.60;1.48;;;21.90;81.30;;;;;;4869008;29;20107;-85
2022/10/15 12:41:11;;;;;;;0.35;0.35;;;24.10;80.00;;;;;;4902635;29;20148;-92
2022/10/15 12:43:44;;;;;;;1.95;1.85;;;24.40;79.30;;;;;;4956384;28;20031;-91
2022/10/15 12:46:11;;;;;;;1.17;1.17;;;24.70;76.50;;;;;;4963371;28;20034;-85
2022/10/15 12:48:46;;;;;;;0.13;0.13;;;24.20;72.90;;;;;;4962648;28;20039;-82
2022/10/15 12:51:20;;;;;;;3.08;2.88;;;24.40;73.90;;;;;;4945116;28;20077;-83
2022/10/15 12:53:51;;;;;;;0.28;0.28;;;24.70;72.90;;;;;;4962562;28;20105;-81
2022/10/15 12:56:16;;;;;;;1.45;1.35;;;24.80;70.60;;;;;;4945432;28;20027;-78
2022/10/15 12:58:50;;;;;;;0.75;0.75;;;24.90;69.90;;;;;;4962326;28;20038;-78
2022/10/15 13:01:18;;;;;;;8.50;1.70;;;25.10;68.10;;;;;;4944381;28;20046;-89
2022/10/15 13:03:47;;;;;;;0.28;0.25;;;25.30;66.90;;;;;;4945426;28;20037;-81
2022/10/15 13:06:21;;;;;;;0.55;0.55;;;25.60;66.90;;;;;;4945337;28;20316;-80
2022/10/15 13:08:50;;;;;;;0.65;0.65;;;25.90;64.10;;;;;;4962213;28;20034;-87
2022/10/15 13:11:47;;;;;;;10.07;9.38;;;25.70;63.00;;;;;;4961629;28;20081;-79
2022/10/15 13:14:16;;;;;;;2.40;0.75;;;25.70;61.80;;;;;;4961835;28;20030;-80
2022/10/15 13:16:43;;;;;;;0.00;0.00;;;25.70;61.50;;;;;;4961871;28;20125;-88
2022/10/15 13:19:22;;;;;;;0.00;0.00;;;25.70;60.30;;;;;;4962170;28;20526;-78
2022/10/15 13:21:53;;;;;;;0.10;0.10;;;25.70;59.90;;;;;;4960701;28;20031;-84
2022/10/15 13:24:21;;;;;;;0.88;0.85;;;25.20;59.80;;;;;;4962373;28;20023;-81
2022/10/15 13:26:48;;;;;;;0.68;0.68;;;;;;;;;;4961866;28;20236;-83
2022/10/15 13:29:20;;;;;;;0.70;0.70;;;26.10;59.00;;;;;;4961525;28;20280;-93
2022/10/15 13:31:47;;;;;;;0.98;0.73;;;26.10;59.50;;;;;;4961589;28;20047;-89
2022/10/15 13:34:12;;;;;;;1.23;1.13;;;26.10;59.90;;;;;;4962152;28;20026;-84